Etusivu
METAR-TAF:

METAR-TAF

Lentoasemat :

Växjö, Ruotsi

Leveyspiiri: 56-51N, Pituuspiiri: 014-50E, korkeus merenpinnasta: 199 m

Tämänhetkinen sää

Tämä raportti tehtiin 29 minuuttia sitten, kello 14.50 UTC
Tuuli 6 kn idästä/koillisesta, vaihdellen pohjoisen/koillisen ja idän välillä
Lämpötila 2°C
Kosteus 93%
Ilmanpaine 1028 hPa
Näkyvyys 10 km tai enemmän
Muutamia pilviä 600 ft:n korkeudessa
Hajonneita pilviä 2700 ft:n korkeudessa

METAR: ESMX 201450Z 06006KT 030V100 9999 FEW006 BKN027 02/01 Q1028

Aika: 16:19 (15:19 UTC)

Sääennuste

Tämä raportti tehtiin 49 minuuttia sitten, kello 14.30 UTC
Ennuste voimassa 20. päivästä klo 15 UTC - 20. päivään klo 23 UTC
Tuuli 8 kn idästä/koillisesta
Näkyvyys 10 km tai enemmän
Hajonneita pilviä 2000 ft:n korkeudessa
Todennäköisyys 40%
20. päivästä klo 15 UTC - 20. päivään klo 23 UTC
Hajonneita pilviä 1400 ft:n korkeudessa

TAF: ESMX 201430Z 2015/2023 07008KT 9999 BKN020 PROB40 2015/2023 BKN014

Säähavainnot ja -ennusteet yli 4000 lentoasemalta (METAR- ja TAF-raportit).

Käytössä olevat sääasemat on merkitty karttaan keltaisilla ja punaisilla pisteillä.

Aseta hiiri pisteen päälle nähdäksesi sääaseman nimen.

Klikkaa sitten nähdäksesi säähavainnot ja -ennusteet.

Kartan vaihtaminen: klikkaa mustalla rastilla varustettuja vihreitä pisteitä, niin voit zoomata sisään; viivalla varustettua vihreää pistettä, niin voit zoomata ulos tai vihreitä nuolia, niin pääset viereisille kartoille.


METAR-TAF: